Flight Track Log - Related Links

Times and Time Zones

All times are in EDT time to prevent confusion due to time zone crossing. See the EJA727 flight status page for this flight to view local times or setup timezone preferences in your user account.

Time Position Orientation Groundspeed Altitude Reporting Facility
EDT Latitude Longitude Course Direction KTS MPH feet Rate Location/Type
Sun 06:10:38 PM 40.8333 -74.0833 252° West 174 200 1,000  Level New York TRACON
Sun 06:11:38 PM 40.8167 -74.1500 252° West 198 228 1,500 1,500 Climbing New York TRACON
Sun 06:12:38 PM 40.8167 -74.2333 270° West 218 251 4,000 3,204 Climbing New York TRACON
Sun 06:15:04 PM 40.7972 -74.4772 264° West 303 349 12,500 3,291 Climbing New York Center
Sun 06:16:04 PM 40.7747 -74.5908 255° West 345 397 15,300 2,876 Climbing New York Center
Sun 06:17:05 PM 40.7469 -74.7428 256° West 383 441 18,300 2,878 Climbing New York Center
Sun 06:18:07 PM 40.7192 -74.8808 255° West 391 450 21,200 2,622 Climbing New York Center
Sun 06:19:04 PM 40.6936 -75.0161 256° West 391 450 23,500 2,136 Climbing New York Center
Sun 06:20:05 PM 40.6511 -75.1531 248° West 397 457 25,400 1,623 Climbing New York Center
Sun 06:21:06 PM 40.5900 -75.2831 238° Southwest 408 470 26,800 1,289 Climbing New York Center
Sun 06:22:06 PM 40.5308 -75.4103 239° Southwest 419 482 28,000 1,200 Climbing New York Center
Sun 06:23:06 PM 40.4714 -75.5453 240° Southwest 424 488 29,200 1,220 Climbing New York Center
Sun 06:24:04 PM 40.4164 -75.6642 239° Southwest 424 488 30,400 1,210 Climbing New York Center
Sun 06:25:05 PM 40.3589 -75.7908 239° Southwest 424 488 31,600 1,180 Climbing New York Center
Sun 06:26:06 PM 40.2931 -75.9194 236° Southwest 419 482 32,800 1,210 Climbing New York Center
Sun 06:27:04 PM 40.2356 -76.0403 238° Southwest 419 482 34,000 1,068 Climbing New York Center
Sun 06:28:04 PM 40.1689 -76.1792 238° Southwest 412 474 34,900 1,190 Climbing New York Center
Sun 06:29:05 PM 40.1222 -76.2842 240° Southwest 405 466 36,400 1,339 Climbing New York Center
Sun 06:30:05 PM 40.0686 -76.4019 239° Southwest 394 453 37,600 508 Climbing New York Center
Sun 06:32:14 PM 39.9442 -76.6658 238° Southwest 387 445 38,000 127 Climbing Washington Center
Sun 06:33:14 PM 39.8869 -76.7811 237° Southwest 387 445 38,000  Level Washington Center
Sun 06:34:12 PM 39.8444 -76.8778 240° Southwest 382 440 38,000  Level Washington Center
Sun 06:35:13 PM 39.7761 -77.0169 237° Southwest 388 447 38,000  Level Washington Center
Sun 06:36:13 PM 39.7225 -77.1372 240° Southwest 388 447 38,000  Level Washington Center
Sun 06:37:14 PM 39.6667 -77.2575 239° Southwest 383 441 38,000  Level Washington Center
Sun 06:38:12 PM 39.6108 -77.3747 238° Southwest 383 441 38,000  Level Washington Center
Sun 06:39:12 PM 39.5550 -77.4917 238° Southwest 383 441 38,000  Level Washington Center
Sun 06:40:13 PM 39.4989 -77.6114 239° Southwest 383 441 38,000  Level Washington Center
Sun 06:41:13 PM 39.4425 -77.7306 239° Southwest 383 441 38,000  Level Washington Center
Sun 06:42:14 PM 39.3842 -77.8497 238° Southwest 388 447 38,000  Level Washington Center
Sun 06:43:14 PM 39.3358 -77.9717 243° Southwest 383 441 38,000  Level Washington Center
Sun 06:44:12 PM 39.2856 -78.0933 242° Southwest 383 441 38,000  Level Washington Center
Sun 06:45:12 PM 39.2433 -78.2100 245° Southwest 388 447 38,000  Level Washington Center
Sun 06:46:12 PM 39.1950 -78.3286 242° Southwest 388 447 38,000  Level Washington Center
Sun 06:47:13 PM 39.1442 -78.4525 242° Southwest 388 447 38,000  Level Washington Center
Sun 06:48:14 PM 39.0953 -78.5764 243° Southwest 388 447 38,000  Level Washington Center
Sun 06:49:14 PM 39.0442 -78.6972 241° Southwest 388 447 38,000  Level Washington Center
Sun 06:50:12 PM 38.9953 -78.8208 243° Southwest 388 447 38,000  Level Washington Center
Sun 06:51:12 PM 38.9461 -78.9414 242° Southwest 388 447 38,000  Level Washington Center
Sun 06:52:13 PM 38.8967 -79.0617 242° Southwest 383 441 38,000  Level Washington Center
Sun 06:53:13 PM 38.8494 -79.1847 244° Southwest 388 447 38,000  Level Washington Center
Sun 06:54:14 PM 38.8203 -79.3139 254° West 383 441 38,000 298 Level Washington Center
Sun 06:55:14 PM 38.7956 -79.4406 256° West 378 435 38,600 814 Climbing Washington Center
Sun 06:56:12 PM 38.7594 -79.5853 252° West 378 435 39,600 706 Climbing Washington Center
Sun 06:57:13 PM 38.7261 -79.7111 251° West 378 435 40,000 198 Climbing Washington Center
Sun 06:58:13 PM 38.6969 -79.8319 253° West 378 435 40,000  Level Washington Center
Sun 06:59:14 PM 38.6608 -79.9628 251° West 383 441 40,000  Level Washington Center
Sun 07:00:45 PM 38.6083 -80.1556 251° West 397 457 40,000  Level Indianapolis Center
Sun 07:01:47 PM 38.5717 -80.2953 251° West 397 457 40,000  Level Indianapolis Center
Sun 07:02:49 PM 38.5306 -80.4514 251° West 400 460 40,000  Level Indianapolis Center
Sun 07:03:51 PM 38.4944 -80.5864 251° West 401 461 40,000  Level Indianapolis Center
Sun 07:04:53 PM 38.4589 -80.7192 251° West 396 456 40,000  Level Indianapolis Center
Sun 07:05:55 PM 38.4242 -80.8506 251° West 391 450 40,000  Level Indianapolis Center
Sun 07:06:57 PM 38.3886 -80.9828 251° West 392 451 40,000  Level Indianapolis Center
Sun 07:07:59 PM 38.3528 -81.1136 251° West 390 449 40,000  Level Indianapolis Center
Sun 07:09:01 PM 38.3167 -81.2467 251° West 393 452 40,000  Level Indianapolis Center
Sun 07:10:03 PM 38.2736 -81.4053 251° West 392 451 40,000  Level Indianapolis Center
Sun 07:11:05 PM 38.2367 -81.5356 250° West 390 449 40,000 242 Level Indianapolis Center
Sun 07:12:07 PM 38.2000 -81.6694 251° West 396 456 40,500 484 Climbing Indianapolis Center
Sun 07:13:09 PM 38.1633 -81.8008 250° West 394 453 41,000 242 Climbing Indianapolis Center
Sun 07:14:11 PM 38.1264 -81.9347 251° West 399 459 41,000  Level Indianapolis Center
Sun 07:15:13 PM 38.0881 -82.0717 250° West 408 470 41,000  Level Indianapolis Center
Sun 07:16:15 PM 38.0475 -82.2125 250° West 402 463 41,000  Level Indianapolis Center
Sun 07:17:17 PM 38.0114 -82.3464 251° West 402 463 41,000  Level Indianapolis Center
Sun 07:18:19 PM 37.9661 -82.5008 250° West 403 464 41,000  Level Indianapolis Center
Sun 07:19:20 PM 37.9281 -82.6331 250° West 401 461 41,000  Level Indianapolis Center
Sun 07:20:22 PM 37.8908 -82.7667 251° West 402 463 41,000  Level Indianapolis Center
Sun 07:21:24 PM 37.8519 -82.8997 250° West 404 465 41,000  Level Indianapolis Center
Sun 07:22:26 PM 37.8128 -83.0328 250° West 405 466 41,000  Level Indianapolis Center
Sun 07:23:28 PM 37.7678 -83.1861 250° West 401 461 41,000  Level Indianapolis Center
Sun 07:24:30 PM 37.7286 -83.3200 250° West 406 467 41,000  Level Indianapolis Center
Sun 07:25:32 PM 37.6894 -83.4531 250° West 404 465 41,000  Level Indianapolis Center
Sun 07:26:34 PM 37.6497 -83.5878 250° West 409 471 41,000  Level Indianapolis Center
Sun 07:27:36 PM 37.6092 -83.7208 249° West 409 471 41,000  Level Indianapolis Center
Sun 07:28:37 PM 37.5692 -83.8542 249° West 407 468 41,000  Level Indianapolis Center
Sun 07:29:39 PM 37.5222 -84.0100 249° West 409 471 41,000  Level Indianapolis Center
Sun 07:30:41 PM 37.4814 -84.1428 249° West 407 468 41,000  Level Indianapolis Center
Sun 07:31:43 PM 37.4431 -84.2747 250° West 405 466 41,000  Level Indianapolis Center
Sun 07:32:45 PM 37.4022 -84.4058 249° West 403 464 41,000  Level Indianapolis Center
Sun 07:33:47 PM 37.3608 -84.5386 249° West 404 465 41,000  Level Indianapolis Center
Sun 07:34:49 PM 37.3131 -84.6947 249° West 410 472 41,000  Level Indianapolis Center
Sun 07:35:51 PM 37.2697 -84.8297 248° West 414 476 41,000  Level Indianapolis Center
Sun 07:36:53 PM 37.2292 -84.9644 249° West 413 475 41,000  Level Indianapolis Center
Sun 07:37:55 PM 37.1853 -85.0978 248° West 413 475 41,000  Level Indianapolis Center
Sun 07:38:57 PM 37.1439 -85.2308 249° West 411 473 41,000  Level Indianapolis Center
Sun 07:39:58 PM 37.1025 -85.3639 249° West 411 473 41,000  Level Indianapolis Center
Sun 07:41:00 PM 37.0586 -85.4983 248° West 414 476 41,000  Level Indianapolis Center
Sun 07:42:02 PM 37.0142 -85.6400 249° West 413 475 41,000  Level Indianapolis Center
Sun 07:43:04 PM 36.9694 -85.7764 248° West 419 482 41,000  Level Indianapolis Center
Sun 07:44:06 PM 36.9203 -85.9319 248° West 410 472 41,000  Level Indianapolis Center
Sun 07:45:10 PM 36.8744 -86.0725 248° West 417 480 41,000  Level Memphis Center
Sun 07:46:10 PM 36.8333 -86.2094 249° West 423 487 41,000  Level Memphis Center
Sun 07:47:10 PM 36.7875 -86.3389 246° West 418 481 41,000  Level Memphis Center
Sun 07:48:09 PM 36.7458 -86.4703 248° West 418 481 41,000  Level Memphis Center
Sun 07:49:10 PM 36.7022 -86.6044 248° West 423 487 41,000  Level Memphis Center
Sun 07:50:10 PM 36.6603 -86.7358 248° West 423 487 41,000  Level Memphis Center
Sun 07:51:10 PM 36.6161 -86.8694 248° West 423 487 41,000  Level Memphis Center
Sun 07:52:10 PM 36.5717 -87.0006 247° West 423 487 41,000  Level Memphis Center
Sun 07:53:10 PM 36.5253 -87.1342 247° West 423 487 41,000  Level Memphis Center
Sun 07:54:09 PM 36.4806 -87.2678 247° West 423 487 41,000  Level Memphis Center
Sun 07:55:09 PM 36.4358 -87.3983 247° West 423 487 41,000  Level Memphis Center
Sun 07:56:10 PM 36.3911 -87.5289 247° West 418 481 41,000  Level Memphis Center
Sun 07:57:09 PM 36.3461 -87.6594 247° West 415 478 41,000  Level Memphis Center
Sun 07:58:09 PM 36.3008 -87.7894 247° West 415 478 41,000  Level Memphis Center
Sun 07:59:09 PM 36.2594 -87.9067 246° West 421 484 41,000  Level Memphis Center
Sun 08:00:09 PM 36.2139 -88.0392 247° West 421 484 41,000  Level Memphis Center
Sun 08:01:09 PM 36.1664 -88.1769 247° West 414 476 41,000  Level Memphis Center
Sun 08:02:09 PM 36.1208 -88.3092 247° West 409 471 41,000  Level Memphis Center
Sun 08:03:09 PM 36.0728 -88.4414 246° West 415 478 41,000  Level Memphis Center
Sun 08:04:09 PM 36.0269 -88.5733 247° West 420 483 41,000  Level Memphis Center
Sun 08:05:09 PM 35.9786 -88.7078 246° West 425 489 41,000  Level Memphis Center
Sun 08:06:09 PM 35.9303 -88.8369 245° Southwest 420 483 41,000  Level Memphis Center
Sun 08:07:09 PM 35.8819 -88.9711 246° West 420 483 41,000  Level Memphis Center
Sun 08:08:09 PM 35.8353 -89.1022 246° West 420 483 41,000  Level Memphis Center
Sun 08:09:09 PM 35.7864 -89.2361 246° West 420 483 41,000  Level Memphis Center
Sun 08:10:09 PM 35.7397 -89.3672 246° West 420 483 41,000  Level Memphis Center
Sun 08:11:09 PM 35.6906 -89.5008 246° West 420 483 41,000  Level Memphis Center
Sun 08:12:10 PM 35.6517 -89.6289 250° West 413 475 41,000  Level Memphis Center
Sun 08:13:09 PM 35.6025 -89.7619 246° West 419 482 41,000  Level Memphis Center
Sun 08:14:09 PM 35.5550 -89.8925 246° West 419 482 41,000  Level Memphis Center
Sun 08:15:10 PM 35.5056 -90.0256 245° Southwest 424 488 41,000  Level Memphis Center
Sun 08:16:09 PM 35.4556 -90.1583 245° Southwest 424 488 41,000  Level Memphis Center
Sun 08:17:09 PM 35.4078 -90.2883 246° West 424 488 41,000  Level Memphis Center
Sun 08:18:09 PM 35.3600 -90.4181 246° West 424 488 41,000  Level Memphis Center
Sun 08:19:09 PM 35.3117 -90.5506 246° West 424 488 41,000  Level Memphis Center
Sun 08:20:10 PM 35.2594 -90.6775 243° Southwest 424 488 41,000  Level Memphis Center
Sun 08:21:09 PM 35.2131 -90.8094 247° West 419 482 41,000  Level Memphis Center
Sun 08:22:09 PM 35.1647 -90.9336 245° Southwest 419 482 41,000  Level Memphis Center
Sun 08:23:10 PM 35.1158 -91.0603 245° Southwest 419 482 41,000  Level Memphis Center
Sun 08:24:09 PM 35.0672 -91.1917 246° West 424 488 41,000  Level Memphis Center
Sun 08:25:09 PM 35.0225 -91.3056 244° Southwest 424 488 41,000  Level Memphis Center
Sun 08:26:09 PM 34.9672 -91.4442 244° Southwest 418 481 41,000  Level Memphis Center
Sun 08:27:09 PM 34.9181 -91.5703 245° Southwest 418 481 41,000  Level Memphis Center
Sun 08:28:09 PM 34.8731 -91.6911 246° West 429 494 41,000  Level Memphis Center
Sun 08:29:09 PM 34.8150 -91.8292 243° Southwest 424 488 41,000  Level Memphis Center
Sun 08:30:09 PM 34.7636 -91.9547 244° Southwest 418 481 41,000  Level Memphis Center
Sun 08:31:09 PM 34.7161 -92.0778 245° Southwest 418 481 41,000  Level Memphis Center
Sun 08:32:09 PM 34.6619 -92.2078 243° Southwest 423 487 41,000  Level Memphis Center
Sun 08:33:09 PM 34.5914 -92.3200 233° Southwest 423 487 41,000  Level Memphis Center
Sun 08:34:09 PM 34.5228 -92.4367 235° Southwest 429 494 41,000  Level Memphis Center
Sun 08:35:09 PM 34.4519 -92.5508 233° Southwest 424 488 41,000  Level Memphis Center
Sun 08:36:09 PM 34.3831 -92.6650 234° Southwest 424 488 41,000  Level Memphis Center
Sun 08:37:09 PM 34.3183 -92.7839 237° Southwest 429 494 41,000  Level Memphis Center
Sun 08:38:09 PM 34.2472 -92.8975 233° Southwest 429 494 41,000  Level Memphis Center
Sun 08:40:30 PM 34.0847 -93.1631 234° Southwest 429 494 41,000  Level Fort Worth Center
Sun 08:41:30 PM 34.0114 -93.2769 232° Southwest 429 494 41,000  Level Fort Worth Center
Sun 08:42:30 PM 33.9419 -93.3903 234° Southwest 429 494 41,000  Level Fort Worth Center
Sun 08:43:30 PM 33.8706 -93.5061 233° Southwest 429 494 41,000  Level Fort Worth Center
Sun 08:44:30 PM 33.8008 -93.6167 233° Southwest 429 494 41,000  Level Fort Worth Center
Sun 08:45:30 PM 33.7292 -93.7322 233° Southwest 429 494 41,000  Level Fort Worth Center
Sun 08:46:30 PM 33.6594 -93.8450 233° Southwest 429 494 41,000  Level Fort Worth Center
Sun 08:47:30 PM 33.5917 -93.9575 234° Southwest 429 494 41,000  Level Fort Worth Center
Sun 08:48:30 PM 33.5194 -94.0722 233° Southwest 429 494 41,000  Level Fort Worth Center
Sun 08:49:30 PM 33.4517 -94.1919 236° Southwest 429 494 41,000  Level Fort Worth Center
Sun 08:50:30 PM 33.3836 -94.3089 235° Southwest 434 499 41,000  Level Fort Worth Center
Sun 08:51:30 PM 33.3178 -94.4256 236° Southwest 434 499 41,000  Level Fort Worth Center
Sun 08:52:30 PM 33.2536 -94.5419 237° Southwest 434 499 41,000  Level Fort Worth Center
Sun 08:53:30 PM 33.1872 -94.6558 235° Southwest 428 493 41,000  Level Fort Worth Center
Sun 08:54:30 PM 33.1208 -94.7744 236° Southwest 433 498 41,000  Level Fort Worth Center
Sun 08:55:30 PM 33.0525 -94.8928 235° Southwest 433 498 41,000  Level Fort Worth Center
Sun 08:56:30 PM 32.9836 -95.0111 235° Southwest 433 498 41,000  Level Fort Worth Center
Sun 08:57:30 PM 32.9169 -95.1292 236° Southwest 433 498 41,000  Level Fort Worth Center
Sun 08:58:30 PM 32.8503 -95.2447 236° Southwest 433 498 41,000  Level Fort Worth Center
Sun 08:59:30 PM 32.7894 -95.3600 238° Southwest 416 479 41,000  Level Fort Worth Center
Sun 09:00:30 PM 32.7183 -95.4800 235° Southwest 429 494 41,000  Level Fort Worth Center
Sun 09:01:30 PM 32.6594 -95.5850 236° Southwest 434 499 41,000  Level Fort Worth Center
Sun 09:02:30 PM 32.5922 -95.7047 236° Southwest 434 499 41,000  Level Fort Worth Center
Sun 09:03:30 PM 32.5247 -95.8192 235° Southwest 434 499 41,000  Level Fort Worth Center
Sun 09:04:30 PM 32.4553 -95.9361 235° Southwest 434 499 41,000  Level Fort Worth Center
Sun 09:05:30 PM 32.3856 -96.0506 234° Southwest 434 499 41,000  Level Fort Worth Center
Sun 09:06:30 PM 32.3117 -96.1769 235° Southwest 434 499 41,000  Level Fort Worth Center
Sun 09:07:30 PM 32.2417 -96.2908 234° Southwest 432 497 41,000  Level Fort Worth Center
Sun 09:08:30 PM 32.1739 -96.4072 235° Southwest 432 497 41,000  Level Fort Worth Center
Sun 09:09:30 PM 32.1078 -96.5231 236° Southwest 432 497 41,000 -450 Level Fort Worth Center
Sun 09:10:30 PM 32.0333 -96.6317 231° Southwest 432 497 40,100 -1,700 Descending Fort Worth Center
Sun 09:11:30 PM 31.9358 -96.7108 215° Southwest 427 491 37,600 -2,406 Descending Fort Worth Center
Sun 09:13:42 PM 31.6986 -96.8708 210° Southwest 458 527 32,400 -2,394 Descending Houston Center
Sun 09:14:43 PM 31.5872 -96.9481 211° Southwest 462 532 29,900 -2,390 Descending Houston Center
Sun 09:15:45 PM 31.4767 -97.0250 211° Southwest 457 526 27,500 -2,341 Descending Houston Center
Sun 09:16:46 PM 31.3675 -97.1000 210° Southwest 452 520 25,100 -2,262 Descending Houston Center
Sun 09:17:47 PM 31.2625 -97.1719 210° Southwest 438 504 22,900 -1,512 Descending Houston Center
Sun 09:18:49 PM 31.1544 -97.2300 205° Southwest 432 497 22,000 -1,561 Descending Houston Center
Sun 09:19:50 PM 31.0425 -97.2733 198° South 424 488 19,700 -2,902 Descending Houston Center
Sun 09:20:51 PM 30.9286 -97.3161 198° South 410 472 16,100 -3,024 Descending Houston Center
Sun 09:21:53 PM 30.8242 -97.3581 199° South 373 429 13,500 -2,341 Descending Houston Center
Sun 09:22:54 PM 30.7419 -97.3958 202° Southwest 319 367 11,300 -2,016 Descending Houston Center
Sun 09:23:55 PM 30.6656 -97.4425 208° Southwest 307 353 9,400 -1,820 Descending Houston Center
Sun 09:24:56 PM 30.5897 -97.4903 208° Southwest 306 352 7,600 -1,756 Descending Houston Center
Sun 09:25:58 PM 30.5186 -97.5336 208° Southwest 293 337 5,800 -1,561 Descending Houston Center
Sun 09:26:59 PM 30.4539 -97.5708 206° Southwest 266 306 4,400 -1,328 Descending Houston Center
Sun 09:28:00 PM 30.3961 -97.6067 208° Southwest 242 278 3,100 -885 Descending Houston Center
Sun 09:29:01 PM 30.3411 -97.6419 209° Southwest 228 262 2,600 -488 Descending Houston Center
Sun 09:30:03 PM 30.2925 -97.6628 200° South 198 228 2,100 -585 Descending Houston Center
Sun 09:31:04 PM 30.2497 -97.6586 175° South 166 191 1,400 -541 Descending Houston Center
Sun 09:32:05 PM 30.2164 -97.6581 179° South 148 170 1,000 -393 Descending Houston Center
Sun 09:34:00 PM 30.1945 -97.6699 221° Southwest  Level Estimated

Login

Don't have an account? Register now (free) for customized features, flight alerts, and more!